createdAt,value
2023-03-19T00:00:18.093Z,6.10
2023-03-19T00:01:22.619Z,6.17
2023-03-19T00:02:24.458Z,5.50
2023-03-19T00:03:28.817Z,6.03
2023-03-19T00:04:30.659Z,5.83
2023-03-19T00:05:32.510Z,6.87
2023-03-19T00:06:34.687Z,6.40
2023-03-19T00:07:39.549Z,5.80
2023-03-19T00:08:42.355Z,6.77
2023-03-19T00:09:50.290Z,6.90
2023-03-19T00:11:13.580Z,7.40
2023-03-19T00:12:35.977Z,7.60
2023-03-19T00:13:37.364Z,7.60
2023-03-19T00:14:38.772Z,7.57
2023-03-19T00:15:40.206Z,7.93
2023-03-19T00:16:41.694Z,7.40
2023-03-19T00:17:43.718Z,8.00
2023-03-19T00:18:45.070Z,8.00
2023-03-19T00:19:46.614Z,7.53
2023-03-19T00:20:47.971Z,8.13
2023-03-19T00:21:49.385Z,7.63
2023-03-19T00:22:51.111Z,24.27
2023-03-19T00:23:52.579Z,38.87
2023-03-19T00:24:53.912Z,116.43
2023-03-19T00:25:55.516Z,91.30
2023-03-19T00:26:56.970Z,96.83
2023-03-19T00:27:59.820Z,123.57
2023-03-19T00:29:01.731Z,54.43
2023-03-19T00:30:04.746Z,27.00
2023-03-19T00:31:06.890Z,36.60
2023-03-19T00:32:08.329Z,12.63
2023-03-19T00:33:10.018Z,8.13
2023-03-19T00:34:13.207Z,7.13
2023-03-19T00:35:14.766Z,6.27
2023-03-19T00:36:16.501Z,5.80
2023-03-19T00:37:18.209Z,5.57
2023-03-19T00:38:19.672Z,5.43
2023-03-19T00:39:21.672Z,6.10
2023-03-19T00:40:23.018Z,5.90
2023-03-19T00:41:24.603Z,5.17
2023-03-19T00:42:26.068Z,5.37
2023-03-19T00:43:28.081Z,5.80
2023-03-19T00:44:29.461Z,5.23
2023-03-19T00:45:31.137Z,5.63
2023-03-19T00:46:32.709Z,5.43
2023-03-19T00:47:34.241Z,5.50
2023-03-19T00:48:35.670Z,5.80
2023-03-19T00:49:37.043Z,5.50
2023-03-19T00:50:38.360Z,5.10
2023-03-19T00:51:43.687Z,5.53
2023-03-19T00:52:45.092Z,5.30
2023-03-19T00:53:46.432Z,4.70
2023-03-19T00:54:47.846Z,5.43
2023-03-19T00:55:49.207Z,5.03
2023-03-19T00:56:50.731Z,4.93
2023-03-19T00:57:52.304Z,5.10
2023-03-19T00:58:53.696Z,5.27
2023-03-19T00:59:55.183Z,5.13
2023-03-19T01:00:56.859Z,5.30
2023-03-19T01:01:58.309Z,5.30
2023-03-19T01:03:00.167Z,5.50
2023-03-19T01:04:01.613Z,5.30
2023-03-19T01:05:03.167Z,4.93
2023-03-19T01:06:05.161Z,5.50
2023-03-19T01:07:06.678Z,6.00
2023-03-19T01:08:08.129Z,5.53
2023-03-19T01:09:10.564Z,5.57
2023-03-19T01:10:12.166Z,5.83
2023-03-19T01:11:14.608Z,5.70
2023-03-19T01:12:16.405Z,5.30
2023-03-19T01:13:17.752Z,5.07
2023-03-19T01:14:19.132Z,5.07
2023-03-19T01:16:21.761Z,5.57
2023-03-19T01:17:23.144Z,5.20
2023-03-19T01:18:24.518Z,5.93
2023-03-19T01:19:26.251Z,5.33
2023-03-19T01:20:27.813Z,5.40
2023-03-19T01:21:32.139Z,4.70
2023-03-19T01:22:35.947Z,5.20
2023-03-19T01:23:37.535Z,5.07
2023-03-19T01:24:38.860Z,5.17
2023-03-19T01:25:40.331Z,5.30
2023-03-19T01:26:41.907Z,5.63
2023-03-19T01:28:04.986Z,4.93
2023-03-19T01:29:07.107Z,5.17
2023-03-19T01:30:09.169Z,5.43
2023-03-19T01:31:30.668Z,5.43
2023-03-19T01:32:52.376Z,6.10
2023-03-19T01:34:11.343Z,5.53
2023-03-19T01:35:25.313Z,5.43
2023-03-19T01:36:27.222Z,5.73
2023-03-19T01:37:34.645Z,5.67
2023-03-19T01:38:36.144Z,6.80
2023-03-19T01:39:40.484Z,7.27
2023-03-19T01:40:48.532Z,7.40
2023-03-19T01:41:50.534Z,7.30
2023-03-19T01:43:25.458Z,7.20
2023-03-19T01:44:32.220Z,6.50
2023-03-19T01:45:58.837Z,5.67
2023-03-19T01:47:28.385Z,6.10
2023-03-19T01:49:04.583Z,5.67
2023-03-19T01:50:06.476Z,5.13
2023-03-19T01:51:09.765Z,5.53
2023-03-19T01:52:33.316Z,5.03
2023-03-19T01:53:51.507Z,5.57
2023-03-19T01:55:07.396Z,5.00
2023-03-19T01:56:32.434Z,5.07
2023-03-19T01:57:39.410Z,5.60
2023-03-19T01:58:57.517Z,4.77
2023-03-19T02:00:17.495Z,5.03
2023-03-19T02:01:20.504Z,5.00
2023-03-19T02:02:27.972Z,4.70
2023-03-19T02:03:30.692Z,4.37
2023-03-19T02:05:09.342Z,5.17
2023-03-19T02:06:12.151Z,4.90
2023-03-19T02:07:13.752Z,5.47
2023-03-19T02:08:16.193Z,5.10
2023-03-19T02:09:18.814Z,4.80
2023-03-19T02:10:21.659Z,5.17
2023-03-19T02:11:23.452Z,5.07
2023-03-19T02:12:24.913Z,5.13
2023-03-19T02:13:27.819Z,4.73
2023-03-19T02:14:29.254Z,4.77
2023-03-19T02:15:31.362Z,4.47
2023-03-19T02:16:32.906Z,4.77
2023-03-19T02:17:34.421Z,4.83
2023-03-19T02:18:36.208Z,4.80
2023-03-19T02:20:01.644Z,5.07
2023-03-19T02:21:04.795Z,4.50
2023-03-19T02:22:07.037Z,4.67
2023-03-19T02:23:20.350Z,4.90
2023-03-19T02:24:35.194Z,5.87
2023-03-19T02:25:44.800Z,4.90
2023-03-19T02:26:47.037Z,4.87
2023-03-19T02:27:48.398Z,4.83
2023-03-19T02:28:50.929Z,4.93
2023-03-19T02:29:57.533Z,4.57
2023-03-19T02:30:59.486Z,5.10
2023-03-19T02:32:00.863Z,5.00
2023-03-19T02:33:02.309Z,4.70
2023-03-19T02:34:06.019Z,4.73
2023-03-19T02:35:10.036Z,4.97
2023-03-19T02:36:17.227Z,5.03
2023-03-19T02:37:21.141Z,4.50
2023-03-19T02:38:23.432Z,5.07
2023-03-19T02:39:34.047Z,5.37
2023-03-19T02:40:41.227Z,4.90
2023-03-19T02:41:42.896Z,4.63
2023-03-19T02:42:44.251Z,5.13
2023-03-19T02:43:45.581Z,5.03
2023-03-19T02:44:47.671Z,4.87
2023-03-19T02:45:49.445Z,5.20
2023-03-19T02:46:50.821Z,4.83
2023-03-19T02:47:52.171Z,5.17
2023-03-19T02:48:53.673Z,4.43
2023-03-19T02:49:55.062Z,4.57
2023-03-19T02:50:57.616Z,5.33
2023-03-19T02:51:59.759Z,4.83
2023-03-19T02:53:01.200Z,4.50
2023-03-19T02:54:02.632Z,4.80
2023-03-19T02:55:04.154Z,4.73
2023-03-19T02:56:05.959Z,5.00
2023-03-19T02:57:07.365Z,4.97
2023-03-19T02:58:08.801Z,4.70
2023-03-19T02:59:10.254Z,4.70
2023-03-19T03:00:12.096Z,4.50
2023-03-19T03:01:13.840Z,5.00
2023-03-19T03:02:15.317Z,5.27
2023-03-19T03:03:17.059Z,5.30
2023-03-19T03:04:18.624Z,4.70
2023-03-19T03:05:21.151Z,5.10
2023-03-19T03:06:22.780Z,5.17
2023-03-19T03:07:24.114Z,5.43
2023-03-19T03:08:25.442Z,4.77
2023-03-19T03:09:27.222Z,5.03
2023-03-19T03:10:28.555Z,5.43
2023-03-19T03:11:30.170Z,5.30
2023-03-19T03:12:32.466Z,5.00
2023-03-19T03:13:33.885Z,5.40
2023-03-19T03:14:36.470Z,5.03
2023-03-19T03:15:38.121Z,5.70
2023-03-19T03:16:39.653Z,5.20
2023-03-19T03:17:41.798Z,5.23
2023-03-19T03:18:43.603Z,5.23
2023-03-19T03:19:44.932Z,5.40
2023-03-19T03:20:46.749Z,5.83
2023-03-19T03:21:48.159Z,5.47
2023-03-19T03:22:49.707Z,5.20
2023-03-19T03:23:51.521Z,5.40
2023-03-19T03:24:52.956Z,5.47
2023-03-19T03:25:54.318Z,5.03
2023-03-19T03:26:55.672Z,4.90
2023-03-19T03:27:57.138Z,4.93
2023-03-19T03:28:58.544Z,5.10
2023-03-19T03:29:59.898Z,5.30
2023-03-19T03:31:02.281Z,4.73
2023-03-19T03:32:03.657Z,4.90
2023-03-19T03:33:05.031Z,5.63
2023-03-19T03:34:06.411Z,5.13
2023-03-19T03:35:08.556Z,5.17
2023-03-19T03:36:09.956Z,4.60
2023-03-19T03:37:11.338Z,4.90
2023-03-19T03:38:12.762Z,4.53
2023-03-19T03:39:14.490Z,4.40
2023-03-19T03:40:17.127Z,5.20
2023-03-19T03:41:18.591Z,5.00
2023-03-19T03:42:20.089Z,4.83
2023-03-19T03:43:21.462Z,5.07
2023-03-19T03:44:23.292Z,4.93
2023-03-19T03:45:24.733Z,4.80
2023-03-19T03:46:27.056Z,4.70
2023-03-19T03:47:28.403Z,5.30
2023-03-19T03:48:29.761Z,4.53
2023-03-19T03:49:31.527Z,5.13
2023-03-19T03:50:33.155Z,4.73
2023-03-19T03:51:40.049Z,5.27
2023-03-19T03:52:42.062Z,5.00
2023-03-19T03:53:43.544Z,4.90
2023-03-19T03:54:46.445Z,4.83
2023-03-19T03:55:47.848Z,4.70
2023-03-19T03:56:50.755Z,4.73
2023-03-19T03:57:52.146Z,5.07
2023-03-19T03:58:53.554Z,4.63
2023-03-19T03:59:55.032Z,4.87
2023-03-19T04:00:56.590Z,5.00
2023-03-19T04:01:58.476Z,4.80
2023-03-19T04:03:00.334Z,4.57
2023-03-19T04:04:01.701Z,4.90
2023-03-19T04:05:03.352Z,4.90
2023-03-19T04:06:05.071Z,4.90
2023-03-19T04:07:07.102Z,4.97
2023-03-19T04:08:18.236Z,5.00
2023-03-19T04:09:19.746Z,4.93
2023-03-19T04:10:21.104Z,4.50
2023-03-19T04:11:23.317Z,5.00
2023-03-19T04:12:24.804Z,4.63
2023-03-19T04:13:26.397Z,4.90
2023-03-19T04:14:27.898Z,5.10
2023-03-19T04:15:29.974Z,5.23
2023-03-19T04:16:33.469Z,5.30
2023-03-19T04:17:35.626Z,4.90
2023-03-19T04:18:37.540Z,5.10
2023-03-19T04:19:38.925Z,5.10
2023-03-19T04:20:41.193Z,4.87
2023-03-19T04:21:42.670Z,4.80
2023-03-19T04:22:44.509Z,4.57
2023-03-19T04:23:45.946Z,4.40
2023-03-19T04:24:48.368Z,4.87
2023-03-19T04:25:50.367Z,4.60
2023-03-19T04:26:53.225Z,4.30
2023-03-19T04:27:56.755Z,4.30
2023-03-19T04:28:58.773Z,4.47
2023-03-19T04:30:00.775Z,4.40
2023-03-19T04:31:04.522Z,4.57
2023-03-19T04:32:08.166Z,4.40
2023-03-19T04:33:10.791Z,4.60
2023-03-19T04:34:12.912Z,4.50
2023-03-19T04:35:14.421Z,4.30
2023-03-19T04:36:17.910Z,4.23
2023-03-19T04:37:19.419Z,4.70
2023-03-19T04:38:26.315Z,4.67
2023-03-19T04:39:27.988Z,4.73
2023-03-19T04:40:29.398Z,4.00
2023-03-19T04:41:30.812Z,4.70
2023-03-19T04:42:41.413Z,4.37
2023-03-19T04:43:47.390Z,4.53
2023-03-19T04:44:49.501Z,4.27
2023-03-19T04:45:51.835Z,4.43
2023-03-19T04:46:53.225Z,4.87
2023-03-19T04:47:56.309Z,4.47
2023-03-19T04:48:57.654Z,4.00
2023-03-19T04:49:59.003Z,4.13
2023-03-19T04:51:01.002Z,4.70
2023-03-19T04:52:02.440Z,4.47
2023-03-19T04:53:03.948Z,4.50
2023-03-19T04:54:05.804Z,4.40
2023-03-19T04:55:07.987Z,4.60
2023-03-19T04:56:21.844Z,4.13
2023-03-19T04:57:23.223Z,4.77
2023-03-19T04:58:27.478Z,4.37
2023-03-19T04:59:34.315Z,4.77
2023-03-19T05:00:36.230Z,4.03
2023-03-19T05:01:38.076Z,4.70
2023-03-19T05:02:42.783Z,4.33
2023-03-19T05:03:44.260Z,4.50
2023-03-19T05:04:45.688Z,4.17
2023-03-19T05:05:49.451Z,4.10
2023-03-19T05:06:51.171Z,4.13
2023-03-19T05:07:52.474Z,4.23
2023-03-19T05:08:53.830Z,4.40
2023-03-19T05:09:56.470Z,4.10
2023-03-19T05:10:57.873Z,4.30
2023-03-19T05:12:01.963Z,4.30
2023-03-19T05:13:07.323Z,4.33
2023-03-19T05:14:12.715Z,4.53
2023-03-19T05:15:30.456Z,4.00
2023-03-19T05:16:36.467Z,4.70
2023-03-19T05:17:38.028Z,4.50
2023-03-19T05:18:48.822Z,3.90
2023-03-19T05:19:52.452Z,4.07
2023-03-19T05:20:54.580Z,4.50
2023-03-19T05:21:57.335Z,4.37
2023-03-19T05:23:00.035Z,4.70
2023-03-19T05:24:14.658Z,4.53
2023-03-19T05:25:16.108Z,4.50
2023-03-19T05:26:18.972Z,4.50
2023-03-19T05:27:53.032Z,4.03
2023-03-19T05:28:58.019Z,4.20
2023-03-19T05:30:08.809Z,4.60
2023-03-19T05:31:23.170Z,4.40
2023-03-19T05:32:28.295Z,4.37
2023-03-19T05:33:29.952Z,4.47
2023-03-19T05:34:31.492Z,4.77
2023-03-19T05:35:33.102Z,4.37
2023-03-19T05:36:35.919Z,4.67
2023-03-19T05:37:42.982Z,4.10
2023-03-19T05:38:44.390Z,4.30
2023-03-19T05:39:52.181Z,4.20
2023-03-19T05:40:53.583Z,4.53
2023-03-19T05:42:04.753Z,4.30
2023-03-19T05:43:07.581Z,4.03
2023-03-19T05:44:09.131Z,4.13
2023-03-19T05:45:30.990Z,4.23
2023-03-19T05:46:36.810Z,4.50
2023-03-19T05:47:39.135Z,3.83
2023-03-19T05:48:40.533Z,4.57
2023-03-19T05:49:42.795Z,4.20
2023-03-19T05:50:44.203Z,4.67
2023-03-19T05:51:52.661Z,4.07
2023-03-19T05:52:54.286Z,3.90
2023-03-19T05:53:55.806Z,4.23
2023-03-19T05:55:05.690Z,4.40
2023-03-19T05:56:22.744Z,4.20
2023-03-19T05:57:34.546Z,3.90
2023-03-19T05:58:42.256Z,3.90
2023-03-19T05:59:43.692Z,4.37
2023-03-19T06:01:02.832Z,3.90
2023-03-19T06:02:04.332Z,4.20
2023-03-19T06:03:06.500Z,4.03
2023-03-19T06:04:14.595Z,4.73
2023-03-19T06:05:16.735Z,4.20
2023-03-19T06:06:18.640Z,4.70
2023-03-19T06:07:20.996Z,4.10
2023-03-19T06:08:23.259Z,3.93
2023-03-19T06:09:38.727Z,4.10
2023-03-19T06:10:40.124Z,4.00
2023-03-19T06:11:45.113Z,4.10
2023-03-19T06:13:05.489Z,4.00
2023-03-19T06:14:16.148Z,4.07
2023-03-19T06:15:25.079Z,4.20
2023-03-19T06:16:52.450Z,4.13
2023-03-19T06:17:53.894Z,3.80
2023-03-19T06:18:55.465Z,4.07
2023-03-19T06:19:58.406Z,4.40
2023-03-19T06:20:59.865Z,3.80
2023-03-19T06:22:01.288Z,4.37
2023-03-19T06:23:02.589Z,4.00
2023-03-19T06:24:04.099Z,4.50
2023-03-19T06:25:09.502Z,4.10
2023-03-19T06:26:12.486Z,3.93
2023-03-19T06:27:22.575Z,3.80
2023-03-19T06:28:25.301Z,3.93
2023-03-19T06:29:27.088Z,3.87
2023-03-19T06:30:34.875Z,4.00
2023-03-19T06:31:41.621Z,4.03
2023-03-19T06:32:54.816Z,4.47
2023-03-19T06:33:57.130Z,3.97
2023-03-19T06:35:04.637Z,4.00
2023-03-19T06:36:06.391Z,4.33
2023-03-19T06:37:08.456Z,4.37
2023-03-19T06:38:09.783Z,4.67
2023-03-19T06:39:11.164Z,5.23
2023-03-19T06:40:12.868Z,5.30
2023-03-19T06:41:14.214Z,5.57
2023-03-19T06:42:16.981Z,5.70
2023-03-19T06:43:18.392Z,6.03
2023-03-19T06:44:20.041Z,5.13
2023-03-19T06:45:21.344Z,5.37
2023-03-19T06:46:23.181Z,5.27
2023-03-19T06:47:24.554Z,5.23
2023-03-19T06:48:25.868Z,5.20
2023-03-19T06:49:27.282Z,4.07
2023-03-19T06:50:28.643Z,4.37
2023-03-19T06:51:29.965Z,4.63
2023-03-19T06:52:31.297Z,4.50
2023-03-19T06:53:32.608Z,4.07
2023-03-19T06:54:33.984Z,4.00
2023-03-19T06:55:35.375Z,3.80
2023-03-19T06:56:36.696Z,3.70
2023-03-19T06:57:38.195Z,3.63
2023-03-19T06:58:39.461Z,3.70
2023-03-19T06:59:41.045Z,3.70
2023-03-19T07:00:42.574Z,3.50
2023-03-19T07:01:43.917Z,3.63
2023-03-19T07:02:45.263Z,3.70
2023-03-19T07:03:46.610Z,3.40
2023-03-19T07:04:48.115Z,3.30
2023-03-19T07:05:52.630Z,3.63
2023-03-19T07:06:54.027Z,3.60
2023-03-19T07:07:55.340Z,3.50
2023-03-19T07:08:57.055Z,3.50
2023-03-19T07:09:58.362Z,3.50
2023-03-19T07:11:03.967Z,3.50
2023-03-19T07:12:05.562Z,3.57
2023-03-19T07:13:07.182Z,3.73
2023-03-19T07:14:08.592Z,3.53
2023-03-19T07:15:10.138Z,3.90
2023-03-19T07:16:11.467Z,3.50
2023-03-19T07:17:12.884Z,3.27
2023-03-19T07:18:14.205Z,3.60
2023-03-19T07:19:15.688Z,3.80
2023-03-19T07:20:17.260Z,4.00
2023-03-19T07:21:18.612Z,3.30
2023-03-19T07:22:20.071Z,3.80
2023-03-19T07:23:25.219Z,3.40
2023-03-19T07:24:26.576Z,3.33
2023-03-19T07:25:27.912Z,4.20
2023-03-19T07:26:29.293Z,3.57
2023-03-19T07:27:30.887Z,3.70
2023-03-19T07:28:32.232Z,3.60
2023-03-19T07:29:33.535Z,3.47
2023-03-19T07:30:36.021Z,3.50
2023-03-19T07:31:37.589Z,3.70
2023-03-19T07:32:39.081Z,3.80
2023-03-19T07:33:40.481Z,3.63
2023-03-19T07:34:41.874Z,3.80
2023-03-19T07:35:43.290Z,3.67
2023-03-19T07:36:44.840Z,3.70
2023-03-19T07:37:46.227Z,3.57
2023-03-19T07:38:47.610Z,3.50
2023-03-19T07:39:48.956Z,3.60
2023-03-19T07:41:01.311Z,3.80
2023-03-19T07:42:03.635Z,3.30
2023-03-19T07:43:05.279Z,3.50
2023-03-19T07:44:06.647Z,3.60
2023-03-19T07:45:08.342Z,3.80
2023-03-19T07:46:09.772Z,3.30
2023-03-19T07:47:22.577Z,3.03
2023-03-19T07:48:29.475Z,3.30
2023-03-19T07:49:31.273Z,3.67
2023-03-19T07:50:33.016Z,3.47
2023-03-19T07:51:34.724Z,3.60
2023-03-19T07:52:36.183Z,3.30
2023-03-19T07:53:37.493Z,3.40
2023-03-19T07:54:38.836Z,3.87
2023-03-19T07:55:43.195Z,3.67
2023-03-19T07:56:44.487Z,3.80
2023-03-19T07:57:45.818Z,3.57
2023-03-19T07:58:47.176Z,3.47
2023-03-19T07:59:48.533Z,3.50
2023-03-19T08:00:50.016Z,3.43
2023-03-19T08:01:51.375Z,3.33
2023-03-19T08:02:52.672Z,3.40
2023-03-19T08:03:53.991Z,3.63
2023-03-19T08:04:55.809Z,3.27
2023-03-19T08:05:57.260Z,3.50
2023-03-19T08:06:58.827Z,3.60
2023-03-19T08:08:00.173Z,3.10
2023-03-19T08:09:01.474Z,3.87
2023-03-19T08:10:06.188Z,3.37
2023-03-19T08:11:07.742Z,3.20
2023-03-19T08:12:09.123Z,3.10
2023-03-19T08:13:10.511Z,3.37
2023-03-19T08:14:12.004Z,3.67
2023-03-19T08:15:13.396Z,3.10
2023-03-19T08:16:14.909Z,3.37
2023-03-19T08:17:16.560Z,2.93
2023-03-19T08:18:18.001Z,3.17
2023-03-19T08:19:19.338Z,3.53
2023-03-19T08:20:21.343Z,3.00
2023-03-19T08:21:22.736Z,3.30
2023-03-19T08:22:24.041Z,3.00
2023-03-19T08:23:25.372Z,3.00
2023-03-19T08:24:26.679Z,3.27
2023-03-19T08:25:32.241Z,2.70
2023-03-19T08:26:33.653Z,3.03
2023-03-19T08:27:38.135Z,2.97
2023-03-19T08:28:39.599Z,3.37
2023-03-19T08:29:41.004Z,3.20
2023-03-19T08:30:42.673Z,3.10
2023-03-19T08:32:59.602Z,2.83
2023-03-19T08:34:03.162Z,2.60
2023-03-19T08:35:06.067Z,3.03
2023-03-19T08:36:16.873Z,2.60
2023-03-19T08:37:18.790Z,3.33
2023-03-19T08:38:20.139Z,2.60
2023-03-19T08:39:21.456Z,3.00
2023-03-19T08:40:23.035Z,2.97
2023-03-19T08:41:24.592Z,2.70
2023-03-19T08:42:25.934Z,2.87
2023-03-19T08:43:27.291Z,2.57
2023-03-19T08:44:28.641Z,2.55
2023-03-19T08:45:30.064Z,2.50
2023-03-19T08:46:31.950Z,2.30
2023-03-19T08:47:33.304Z,2.60
2023-03-19T08:48:34.617Z,2.67
2023-03-19T08:49:36.010Z,2.70
2023-03-19T08:50:37.373Z,2.45
2023-03-19T08:51:39.053Z,2.40
2023-03-19T08:52:40.440Z,2.47
2023-03-19T08:53:41.771Z,2.73
2023-03-19T08:54:43.144Z,2.47
2023-03-19T08:55:44.487Z,2.28
2023-03-19T08:56:46.015Z,2.53
2023-03-19T08:57:47.445Z,2.37
2023-03-19T08:58:48.771Z,2.43
2023-03-19T08:59:50.262Z,2.43
2023-03-19T09:00:51.773Z,2.45
2023-03-19T09:01:53.734Z,2.67
2023-03-19T09:02:55.388Z,2.70
2023-03-19T09:03:56.706Z,2.50
2023-03-19T09:04:58.088Z,2.60
2023-03-19T09:06:03.260Z,2.77
2023-03-19T09:07:04.702Z,2.70
2023-03-19T09:08:06.396Z,2.70
2023-03-19T09:09:07.827Z,2.73
2023-03-19T09:10:09.438Z,2.43
2023-03-19T09:11:11.177Z,2.10
2023-03-19T09:12:13.732Z,2.37
2023-03-19T09:13:15.347Z,2.30
2023-03-19T09:14:17.882Z,2.70
2023-03-19T09:15:19.221Z,2.27
2023-03-19T09:16:20.563Z,2.80
2023-03-19T09:17:21.966Z,2.47
2023-03-19T09:18:26.283Z,2.20
2023-03-19T09:19:27.613Z,2.57
2023-03-19T09:20:28.929Z,2.47
2023-03-19T09:21:30.212Z,2.37
2023-03-19T09:22:31.540Z,2.80
2023-03-19T09:23:33.085Z,2.33
2023-03-19T09:24:34.396Z,2.75
2023-03-19T09:25:35.924Z,2.90
2023-03-19T09:26:37.443Z,2.60
2023-03-19T09:27:38.768Z,2.80
2023-03-19T09:28:40.138Z,2.80
2023-03-19T09:29:41.524Z,2.17
2023-03-19T09:30:44.966Z,2.55
2023-03-19T09:31:46.706Z,2.33
2023-03-19T09:32:48.210Z,2.45
2023-03-19T09:33:50.216Z,1.90
2023-03-19T09:34:51.494Z,2.90
2023-03-19T09:35:53.633Z,2.70
2023-03-19T09:36:55.036Z,2.70
2023-03-19T09:37:56.922Z,2.30
2023-03-19T09:38:58.276Z,2.13
2023-03-19T09:39:59.629Z,2.30
2023-03-19T09:41:20.762Z,2.47
2023-03-19T09:42:28.304Z,2.78
2023-03-19T09:43:33.003Z,2.65
2023-03-19T09:44:35.697Z,2.50
2023-03-19T09:45:37.759Z,2.75
2023-03-19T09:46:39.172Z,2.47
2023-03-19T09:47:41.774Z,2.47
2023-03-19T09:48:50.551Z,3.08
2023-03-19T09:49:53.357Z,3.00
2023-03-19T09:50:55.964Z,2.60
2023-03-19T09:52:01.442Z,2.85
2023-03-19T09:53:15.336Z,4.50
2023-03-19T09:54:35.530Z,3.38
2023-03-19T09:55:45.595Z,2.80
2023-03-19T09:56:47.008Z,3.40
2023-03-19T09:57:48.574Z,3.10
2023-03-19T09:58:49.864Z,2.72
2023-03-19T09:59:53.121Z,2.67
2023-03-19T10:00:55.319Z,2.85
2023-03-19T10:02:03.356Z,2.70
2023-03-19T10:03:14.331Z,2.50
2023-03-19T10:04:25.764Z,2.72
2023-03-19T10:05:31.438Z,2.70
2023-03-19T10:06:38.539Z,2.35
2023-03-19T10:07:58.147Z,3.00
2023-03-19T10:09:04.545Z,2.60
2023-03-19T10:10:05.938Z,2.70
2023-03-19T10:11:15.279Z,2.63
2023-03-19T10:12:22.749Z,2.75
2023-03-19T10:13:24.076Z,2.40
2023-03-19T10:14:37.176Z,2.90
2023-03-19T10:15:39.479Z,3.10
2023-03-19T10:16:41.778Z,2.28
2023-03-19T10:17:47.748Z,2.40
2023-03-19T10:18:50.818Z,2.43
2023-03-19T10:19:58.466Z,2.75
2023-03-19T10:21:03.300Z,2.47
2023-03-19T10:22:08.439Z,2.13
2023-03-19T10:23:28.894Z,2.20
2023-03-19T10:24:39.835Z,2.50
2023-03-19T10:25:43.180Z,2.67
2023-03-19T10:26:48.174Z,2.28
2023-03-19T10:27:54.400Z,2.37
2023-03-19T10:29:08.484Z,2.23
2023-03-19T10:30:16.754Z,2.37
2023-03-19T10:31:18.776Z,2.23
2023-03-19T10:32:20.460Z,2.20
2023-03-19T10:33:21.893Z,2.30
2023-03-19T10:34:32.707Z,2.43
2023-03-19T10:35:57.661Z,2.72
2023-03-19T10:37:03.815Z,2.28
2023-03-19T10:38:25.634Z,2.57
2023-03-19T10:39:27.541Z,2.37
2023-03-19T10:40:40.077Z,2.20
2023-03-19T10:41:56.612Z,2.00
2023-03-19T10:43:04.105Z,2.20
2023-03-19T10:44:25.466Z,2.07
2023-03-19T10:45:28.677Z,2.20
2023-03-19T10:46:40.048Z,2.07
2023-03-19T10:47:43.093Z,2.30
2023-03-19T10:48:45.844Z,2.23
2023-03-19T10:49:47.199Z,2.42
2023-03-19T10:50:50.982Z,2.50
2023-03-19T10:51:53.000Z,2.13
2023-03-19T10:53:03.998Z,2.23
2023-03-19T10:54:19.020Z,2.17
2023-03-19T10:55:24.816Z,2.30
2023-03-19T10:56:29.447Z,2.38
2023-03-19T10:57:33.472Z,2.10
2023-03-19T10:58:36.099Z,2.13
2023-03-19T10:59:38.327Z,2.10
2023-03-19T11:00:39.668Z,1.77
2023-03-19T11:01:41.722Z,2.60
2023-03-19T11:02:47.153Z,2.00
2023-03-19T11:03:55.373Z,2.53
2023-03-19T11:05:23.300Z,3.20
2023-03-19T11:06:24.925Z,2.50
2023-03-19T11:07:27.068Z,2.43
2023-03-19T11:08:35.575Z,2.27
2023-03-19T11:09:38.526Z,2.20
2023-03-19T11:10:45.770Z,2.10
2023-03-19T11:11:50.675Z,2.20
2023-03-19T11:12:57.806Z,2.10
2023-03-19T11:13:59.398Z,2.30
2023-03-19T11:15:03.881Z,2.10
2023-03-19T11:16:05.730Z,1.90
2023-03-19T11:17:16.440Z,2.10
2023-03-19T11:18:31.745Z,2.37
2023-03-19T11:19:34.607Z,2.20
2023-03-19T11:20:37.651Z,2.47
2023-03-19T11:21:38.950Z,2.17
2023-03-19T11:22:40.626Z,2.40
2023-03-19T11:23:42.344Z,1.97
2023-03-19T11:24:51.536Z,10.43
2023-03-19T11:25:56.654Z,52.40
2023-03-19T11:26:58.470Z,12.50
2023-03-19T11:28:06.196Z,12.90
2023-03-19T11:29:09.404Z,48.73
2023-03-19T11:30:17.123Z,15.97
2023-03-19T11:31:19.187Z,18.87
2023-03-19T11:32:39.387Z,15.03
2023-03-19T11:33:47.761Z,3.47
2023-03-19T11:34:53.400Z,2.40
2023-03-19T11:36:02.821Z,1.80
2023-03-19T11:37:23.395Z,2.00
2023-03-19T11:38:33.870Z,2.10
2023-03-19T11:39:46.484Z,2.17
2023-03-19T11:41:18.454Z,2.10
2023-03-19T11:42:38.581Z,2.07
2023-03-19T11:43:58.932Z,3.30
2023-03-19T11:45:35.775Z,3.10
2023-03-19T11:46:54.729Z,2.60
2023-03-19T11:48:11.120Z,3.00
2023-03-19T11:49:13.074Z,2.10
2023-03-19T11:50:23.425Z,2.20
2023-03-19T11:51:46.121Z,2.37
2023-03-19T11:52:54.345Z,2.10
2023-03-19T11:54:10.778Z,2.00
2023-03-19T11:55:19.648Z,2.40
2023-03-19T11:56:39.733Z,2.70
2023-03-19T11:57:55.148Z,2.80
2023-03-19T11:59:20.358Z,2.50
2023-03-19T12:00:36.247Z,2.20
2023-03-19T12:01:56.313Z,2.50
2023-03-19T12:03:16.542Z,2.50
2023-03-19T12:04:43.046Z,2.40
2023-03-19T12:05:53.526Z,2.30
2023-03-19T12:07:13.488Z,2.00
2023-03-19T12:08:23.608Z,2.17
2023-03-19T12:09:29.652Z,2.07
2023-03-19T12:10:42.248Z,2.63
2023-03-19T12:11:48.109Z,2.17
2023-03-19T12:12:57.436Z,2.10
2023-03-19T12:14:16.220Z,2.10
2023-03-19T12:15:36.623Z,2.37
2023-03-19T12:16:46.133Z,2.10
2023-03-19T12:18:06.901Z,2.60
2023-03-19T12:19:11.626Z,1.93
2023-03-19T12:20:19.426Z,2.10
2023-03-19T12:21:40.538Z,2.30
2023-03-19T12:22:52.497Z,2.30
2023-03-19T12:23:53.820Z,2.40
2023-03-19T12:25:04.397Z,2.40
2023-03-19T12:26:25.489Z,2.10
2023-03-19T12:27:41.371Z,2.30
2023-03-19T12:28:51.994Z,2.33
2023-03-19T12:30:00.965Z,2.53
2023-03-19T12:31:08.393Z,2.07
2023-03-19T12:32:26.217Z,2.43
2023-03-19T12:33:35.347Z,2.00
2023-03-19T12:34:39.575Z,3.00
2023-03-19T12:35:43.234Z,2.30
2023-03-19T12:37:04.833Z,2.30
2023-03-19T12:38:06.163Z,1.90
2023-03-19T12:39:12.375Z,1.70
2023-03-19T12:40:15.196Z,1.47
2023-03-19T12:41:24.174Z,1.90
2023-03-19T12:42:29.606Z,1.83
2023-03-19T12:43:52.106Z,1.77
2023-03-19T12:44:55.216Z,1.70
2023-03-19T12:45:59.586Z,1.70
2023-03-19T12:47:06.949Z,2.08
2023-03-19T12:48:13.757Z,2.10
2023-03-19T12:49:19.248Z,1.85
2023-03-19T12:50:21.530Z,2.67
2023-03-19T12:51:28.785Z,1.75
2023-03-19T12:52:43.004Z,1.95
2023-03-19T12:53:50.748Z,1.80
2023-03-19T12:55:13.432Z,2.30
2023-03-19T12:56:24.048Z,1.80
2023-03-19T12:57:40.055Z,1.93
2023-03-19T12:58:58.957Z,1.50
2023-03-19T13:00:07.030Z,1.70
2023-03-19T13:01:08.963Z,2.43
2023-03-19T13:02:27.106Z,1.80
2023-03-19T13:03:54.061Z,1.90
2023-03-19T13:04:57.384Z,1.53
2023-03-19T13:06:03.775Z,1.67
2023-03-19T13:07:16.155Z,1.90
2023-03-19T13:08:35.103Z,1.63
2023-03-19T13:09:43.255Z,1.50
2023-03-19T13:10:44.583Z,1.53
2023-03-19T13:11:54.795Z,1.50
2023-03-19T13:12:56.553Z,1.33
2023-03-19T13:14:08.539Z,1.53
2023-03-19T13:15:16.051Z,1.70
2023-03-19T13:16:23.375Z,1.63
2023-03-19T13:17:30.942Z,2.00
2023-03-19T13:18:32.271Z,1.70
2023-03-19T13:19:38.825Z,1.93
2023-03-19T13:20:43.255Z,1.20
2023-03-19T13:21:46.430Z,1.90
2023-03-19T13:22:51.977Z,2.00
2023-03-19T13:24:21.080Z,2.13
2023-03-19T13:25:29.571Z,2.00
2023-03-19T13:26:31.354Z,1.90
2023-03-19T13:27:36.915Z,2.00
2023-03-19T13:28:53.073Z,2.30
2023-03-19T13:30:03.800Z,2.03
2023-03-19T13:31:17.721Z,1.90
2023-03-19T13:32:28.555Z,2.00
2023-03-19T13:33:31.602Z,1.90
2023-03-19T13:34:34.702Z,1.60
2023-03-19T13:36:05.404Z,1.60
2023-03-19T13:37:18.115Z,1.83
2023-03-19T13:38:25.544Z,2.00
2023-03-19T13:39:29.202Z,2.10
2023-03-19T13:40:44.457Z,1.90
2023-03-19T13:41:53.560Z,2.20
2023-03-19T13:42:59.308Z,1.90
2023-03-19T13:44:20.636Z,1.67
2023-03-19T13:45:29.054Z,1.70
2023-03-19T13:46:34.885Z,1.87
2023-03-19T13:47:37.143Z,1.70
2023-03-19T13:48:45.140Z,1.77
2023-03-19T13:50:16.266Z,1.50
2023-03-19T13:51:18.048Z,1.50
2023-03-19T13:52:20.244Z,1.30
2023-03-19T13:53:33.795Z,1.00
2023-03-19T13:54:36.810Z,1.17
2023-03-19T13:55:46.399Z,1.27
2023-03-19T13:57:05.006Z,1.30
2023-03-19T13:58:37.335Z,1.10
2023-03-19T13:59:39.280Z,1.20
2023-03-19T14:00:43.739Z,1.20
2023-03-19T14:01:45.248Z,1.40
2023-03-19T14:02:47.719Z,1.27
2023-03-19T14:04:00.013Z,1.20
2023-03-19T14:05:08.499Z,1.30
2023-03-19T14:06:29.890Z,1.40
2023-03-19T14:07:40.366Z,1.30
2023-03-19T14:08:43.974Z,1.33
2023-03-19T14:09:48.534Z,1.20
2023-03-19T14:10:52.142Z,1.30
2023-03-19T14:11:53.475Z,1.50
2023-03-19T14:13:07.362Z,2.07
2023-03-19T14:14:13.094Z,1.57
2023-03-19T14:15:24.184Z,1.50
2023-03-19T14:16:29.609Z,1.60
2023-03-19T14:17:33.405Z,1.70
2023-03-19T14:18:39.393Z,1.83
2023-03-19T14:19:41.483Z,1.90
2023-03-19T14:20:52.328Z,3.37
2023-03-19T14:21:54.665Z,2.43
2023-03-19T14:23:08.967Z,2.43
2023-03-19T14:24:55.356Z,2.50
2023-03-19T14:26:05.086Z,2.60
2023-03-19T14:27:16.901Z,2.67
2023-03-19T14:28:19.737Z,2.70
2023-03-19T14:29:22.495Z,2.50
2023-03-19T14:30:27.327Z,2.87
2023-03-19T14:31:33.777Z,2.57